Time;durP1;ratioP1;P1;durP2;ratioP2;P2;SDS_P1;SDS_P2;PMS_P1;PMS_P2;Temp;Humidity;BMP_temperature;BMP_pressure;BME280_temperature;BME280_humidity;BME280_pressure;Samples;Min_cycle;Max_cycle;Signal;HPM_P1;HPM_P2
2023/02/16 00:00:53;;;;;;;187.18;16.30;;;;;;;;;;5065981;28;20036;-60
2023/02/16 00:03:19;;;;;;;180.80;16.02;;;;;;;;;;5066262;28;20035;-61
2023/02/16 00:05:45;;;;;;;196.18;16.27;;;;;;;;;;5065942;28;20040;-58
2023/02/16 00:08:10;;;;;;;183.77;16.73;;;;;;;;;;5067521;28;20039;-59
2023/02/16 00:10:36;;;;;;;198.95;16.13;;;;;;;;;;5064932;28;20044;-59
2023/02/16 00:15:58;;;;;;;206.25;15.90;;;;;;;;;;5066085;28;20040;-59
2023/02/16 00:18:23;;;;;;;176.60;14.93;;;;;;;;;;5065122;28;20025;-60
2023/02/16 00:20:48;;;;;;;211.65;17.65;;;;;;;;;;5063444;28;20107;-59
2023/02/16 00:23:14;;;;;;;195.45;16.30;;;;;;;;;;5064111;28;20456;-60
2023/02/16 00:25:39;;;;;;;168.77;14.43;;;;;;;;;;5066050;28;20055;-59
2023/02/16 00:28:09;;;;;;;233.15;15.63;;;;;;;;;;5064215;28;20469;-60
2023/02/16 00:30:34;;;;;;;216.68;16.58;;;;;;;;;;5066529;28;20829;-60
2023/02/16 00:33:00;;;;;;;202.82;16.50;;;;;;;;;;5063796;28;20028;-60
2023/02/16 00:35:25;;;;;;;193.50;15.45;;;;;;;;;;5062933;28;20028;-60
2023/02/16 00:37:51;;;;;;;159.80;14.68;;;;;;;;;;5064986;28;21117;-60
2023/02/16 00:40:16;;;;;;;221.88;16.85;;;;;;;;;;5064233;28;20557;-60
2023/02/16 00:42:42;;;;;;;165.95;15.00;;;;;;;;;;5065566;28;20023;-60
2023/02/16 00:45:16;;;;;;;160.68;14.35;;;;;;;;;;5065020;28;20252;-61
2023/02/16 00:47:42;;;;;;;165.68;14.48;;;;;;;;;;5069014;28;20648;-59
2023/02/16 00:50:16;;;;;;;195.70;15.13;;;;;;;;;;5068831;28;20020;-60
2023/02/16 00:52:42;;;;;;;214.23;16.05;;;;;;;;;;5065135;28;20024;-61
2023/02/16 00:55:07;;;;;;;188.70;14.10;;;;;;;;;;5064740;28;20034;-58
2023/02/16 00:57:35;;;;;;;239.73;17.60;;;;;;;;;;5063683;28;20028;-60
2023/02/16 01:00:24;;;;;;;206.15;15.60;;;;;;;;;;5065641;28;20020;-61
2023/02/16 01:02:50;;;;;;;176.10;12.23;;;;;;;;;;5055618;28;20119;-61
2023/02/16 01:05:16;;;;;;;176.20;13.98;;;;;;;;;;5064046;28;20028;-58
2023/02/16 01:13:17;;;;;;;164.38;14.55;;;;;;;;;;5044943;28;20044;-59
2023/02/16 01:15:42;;;;;;;189.73;15.18;;;;;;;;;;5064624;28;20083;-59
2023/02/16 01:18:09;;;;;;;205.85;15.07;;;;;;;;;;5063711;28;20020;-59
2023/02/16 01:20:35;;;;;;;220.52;15.63;;;;;;;;;;5066629;28;20055;-58
2023/02/16 01:23:01;;;;;;;218.55;15.77;;;;;;;;;;5062729;28;20020;-59
2023/02/16 01:25:26;;;;;;;188.30;15.10;;;;;;;;;;5063668;28;20894;-59
2023/02/16 01:27:51;;;;;;;180.40;11.93;;;;;;;;;;5065138;28;20020;-59
2023/02/16 01:30:18;;;;;;;200.70;15.35;;;;;;;;;;5064023;28;20054;-59
2023/02/16 01:32:50;;;;;;;202.57;15.77;;;;;;;;;;5063680;28;20016;-59
2023/02/16 01:35:19;;;;;;;250.85;15.52;;;;;;;;;;5063872;28;20035;-58
2023/02/16 01:37:44;;;;;;;190.60;13.60;;;;;;;;;;5062647;28;20023;-59
2023/02/16 01:40:19;;;;;;;183.15;14.68;;;;;;;;;;5065119;28;20036;-59
2023/02/16 01:42:50;;;;;;;181.57;14.30;;;;;;;;;;5085066;28;20096;-59
2023/02/16 01:45:29;;;;;;;208.43;14.93;;;;;;;;;;5083122;28;20047;-59
2023/02/16 01:47:57;;;;;;;175.30;14.30;;;;;;;;;;5067399;28;20020;-59
2023/02/16 01:50:23;;;;;;;180.10;15.25;;;;;;;;;;5065763;28;20028;-59
2023/02/16 01:53:00;;;;;;;213.73;15.68;;;;;;;;;;5066280;28;20069;-60
2023/02/16 01:55:31;;;;;;;177.02;14.32;;;;;;;;;;5068713;28;20146;-60
2023/02/16 01:57:56;;;;;;;188.45;16.10;;;;;;;;;;5068126;28;20058;-59
2023/02/16 02:05:33;;;;;;;840.67;42.55;;;;;;;;;;5963025;23;20863;-60
2023/02/16 02:05:49;;;;;;;1092.03;46.38;;;;;;;;;;5982292;22;20434;-56
2023/02/16 02:23:57;;;;;;;835.13;37.40;;;;;;;;;;5977345;23;20515;-54
2023/02/16 03:03:09;;;;;;;240.40;14.57;;;;;;;;;;5019019;28;20036;-59
2023/02/16 03:05:36;;;;;;;191.27;13.90;;;;;;;;;;5024523;28;20034;-59
2023/02/16 03:08:05;;;;;;;212.93;13.52;;;;;;;;;;5026323;28;20025;-59
2023/02/16 03:13:25;;;;;;;203.32;12.38;;;;;;;;;;5026918;28;20107;-60
2023/02/16 03:15:54;;;;;;;200.63;13.85;;;;;;;;;;5023582;28;20124;-59
2023/02/16 03:29:21;;;;;;;212.15;13.90;;;;;;;;;;5024715;28;20160;-60
2023/02/16 03:31:46;;;;;;;195.60;13.52;;;;;;;;;;5024347;28;20667;-59
2023/02/16 03:34:12;;;;;;;189.50;13.75;;;;;;;;;;5026801;28;20056;-59
2023/02/16 03:36:40;;;;;;;203.95;14.75;;;;;;;;;;5026270;28;20091;-59
2023/02/16 03:39:05;;;;;;;198.13;13.02;;;;;;;;;;5026359;28;20162;-59
2023/02/16 03:41:32;;;;;;;203.15;13.27;;;;;;;;;;5025639;28;20033;-59
2023/02/16 03:43:58;;;;;;;173.85;13.70;;;;;;;;;;5027001;28;20107;-59
2023/02/16 03:46:23;;;;;;;177.98;13.60;;;;;;;;;;5027366;28;20049;-59
2023/02/16 03:48:48;;;;;;;180.57;14.27;;;;;;;;;;5026428;28;20033;-59
2023/02/16 03:51:13;;;;;;;202.73;14.75;;;;;;;;;;5025234;28;20052;-59
2023/02/16 03:53:38;;;;;;;220.02;14.68;;;;;;;;;;5026756;28;20037;-60
2023/02/16 03:56:04;;;;;;;204.98;14.10;;;;;;;;;;5007184;28;20060;-59
2023/02/16 03:58:29;;;;;;;164.68;13.35;;;;;;;;;;5013637;28;20034;-60
2023/02/16 04:00:54;;;;;;;192.85;15.07;;;;;;;;;;5024978;28;20038;-59
2023/02/16 04:03:20;;;;;;;218.82;15.45;;;;;;;;;;5026328;28;20836;-59
2023/02/16 04:05:45;;;;;;;188.70;12.88;;;;;;;;;;5027077;28;20052;-59
2023/02/16 04:08:10;;;;;;;180.60;13.10;;;;;;;;;;5027588;28;20029;-59
2023/02/16 04:10:37;;;;;;;177.75;10.93;;;;;;;;;;5026081;28;20029;-59
2023/02/16 04:13:02;;;;;;;211.48;14.40;;;;;;;;;;5025993;28;20029;-59
2023/02/16 04:15:28;;;;;;;227.20;14.50;;;;;;;;;;5027623;28;20047;-58
2023/02/16 04:17:53;;;;;;;179.75;13.80;;;;;;;;;;5025529;28;20311;-60
2023/02/16 04:20:20;;;;;;;174.93;9.55;;;;;;;;;;5025179;28;20025;-60
2023/02/16 04:22:45;;;;;;;197.25;12.10;;;;;;;;;;5026269;28;20075;-59
2023/02/16 04:25:11;;;;;;;186.48;12.57;;;;;;;;;;5025881;28;20037;-60
2023/02/16 04:27:36;;;;;;;201.07;11.88;;;;;;;;;;5025810;28;20633;-59
2023/02/16 04:30:02;;;;;;;162.57;10.82;;;;;;;;;;5025489;28;20056;-60
2023/02/16 04:32:28;;;;;;;173.05;12.73;;;;;;;;;;5026697;28;20033;-59
2023/02/16 04:34:53;;;;;;;214.98;14.30;;;;;;;;;;5027183;28;20446;-60
2023/02/16 04:37:18;;;;;;;213.13;12.90;;;;;;;;;;5024520;28;20084;-60
2023/02/16 04:39:43;;;;;;;221.00;14.48;;;;;;;;;;5024976;28;20017;-59
2023/02/16 04:42:09;;;;;;;223.38;17.88;;;;;;;;;;5024797;28;20044;-60
2023/02/16 04:44:34;;;;;;;210.43;16.10;;;;;;;;;;5025457;28;20079;-59
2023/02/16 04:46:59;;;;;;;198.68;14.30;;;;;;;;;;5025105;28;20033;-60
2023/02/16 04:49:24;;;;;;;169.50;13.02;;;;;;;;;;5024146;28;20080;-60
2023/02/16 04:51:50;;;;;;;198.70;12.85;;;;;;;;;;5024430;28;20041;-59
2023/02/16 04:54:15;;;;;;;205.98;12.27;;;;;;;;;;5027406;28;20395;-59
2023/02/16 04:56:44;;;;;;;195.20;14.63;;;;;;;;;;5025097;28;20696;-59
2023/02/16 04:59:09;;;;;;;190.63;14.07;;;;;;;;;;5026040;28;20542;-59
2023/02/16 05:01:35;;;;;;;180.77;13.95;;;;;;;;;;5025393;28;20046;-60
2023/02/16 05:04:00;;;;;;;194.02;15.27;;;;;;;;;;5026074;28;20021;-59
2023/02/16 05:06:25;;;;;;;198.75;16.00;;;;;;;;;;5023806;28;20086;-59
2023/02/16 05:08:50;;;;;;;186.50;16.83;;;;;;;;;;5024819;28;20025;-59
2023/02/16 05:16:44;;;;;;;210.95;14.30;;;;;;;;;;5025192;28;20069;-60
2023/02/16 05:19:09;;;;;;;176.32;13.68;;;;;;;;;;5024940;28;20053;-59
2023/02/16 05:21:35;;;;;;;189.38;14.32;;;;;;;;;;5024442;28;20045;-60
2023/02/16 05:24:04;;;;;;;185.70;15.18;;;;;;;;;;5029395;28;20493;-60
2023/02/16 05:26:30;;;;;;;182.55;14.60;;;;;;;;;;5027500;28;20038;-59
2023/02/16 05:28:56;;;;;;;208.18;14.80;;;;;;;;;;5026336;28;20032;-59
2023/02/16 05:31:22;;;;;;;200.27;13.80;;;;;;;;;;5029036;28;20041;-59
2023/02/16 05:33:47;;;;;;;159.50;13.98;;;;;;;;;;5031010;28;20451;-60
2023/02/16 05:36:12;;;;;;;190.18;14.45;;;;;;;;;;5027745;28;20033;-59
2023/02/16 05:38:37;;;;;;;155.52;13.40;;;;;;;;;;5028862;28;20745;-59
2023/02/16 05:41:02;;;;;;;187.15;12.00;;;;;;;;;;5028662;28;20385;-59
2023/02/16 05:43:28;;;;;;;179.30;13.02;;;;;;;;;;5029651;28;20496;-59
2023/02/16 05:45:53;;;;;;;157.27;12.63;;;;;;;;;;5028492;28;20598;-59
2023/02/16 05:48:18;;;;;;;195.95;14.68;;;;;;;;;;5027479;28;20041;-59
2023/02/16 05:50:44;;;;;;;204.63;14.18;;;;;;;;;;5027443;28;20029;-59
2023/02/16 05:53:09;;;;;;;167.02;14.43;;;;;;;;;;5029274;28;20177;-59
2023/02/16 05:55:34;;;;;;;175.07;13.07;;;;;;;;;;5027621;28;20033;-59
2023/02/16 05:57:59;;;;;;;188.57;14.35;;;;;;;;;;5031131;28;20061;-59
2023/02/16 06:00:25;;;;;;;214.27;14.48;;;;;;;;;;5027696;28;20033;-59
2023/02/16 06:02:50;;;;;;;209.77;14.07;;;;;;;;;;5028662;28;20049;-60
2023/02/16 06:05:15;;;;;;;172.68;13.15;;;;;;;;;;5028361;28;20607;-60
2023/02/16 06:07:40;;;;;;;180.45;15.00;;;;;;;;;;5026942;28;20029;-64
2023/02/16 06:10:06;;;;;;;194.00;14.95;;;;;;;;;;5026348;28;20022;-59
2023/02/16 06:12:33;;;;;;;178.50;10.93;;;;;;;;;;5029139;28;20021;-59
2023/02/16 06:14:58;;;;;;;160.95;11.90;;;;;;;;;;5030182;28;20275;-59
2023/02/16 06:17:23;;;;;;;150.75;12.38;;;;;;;;;;5026894;28;20037;-60
2023/02/16 06:19:49;;;;;;;250.52;17.08;;;;;;;;;;5026522;28;20017;-59
2023/02/16 06:22:14;;;;;;;172.60;12.20;;;;;;;;;;5028600;28;20033;-59
2023/02/16 06:24:39;;;;;;;197.13;14.57;;;;;;;;;;5028201;28;20017;-59
2023/02/16 06:27:04;;;;;;;182.30;13.90;;;;;;;;;;5027948;28;20044;-59
2023/02/16 06:29:30;;;;;;;173.38;14.55;;;;;;;;;;5030394;28;20064;-59
2023/02/16 06:31:56;;;;;;;180.60;14.48;;;;;;;;;;5027048;28;20033;-58
2023/02/16 06:34:21;;;;;;;210.00;13.23;;;;;;;;;;5026730;28;20090;-59
2023/02/16 06:36:46;;;;;;;176.25;13.57;;;;;;;;;;5028140;28;20064;-59
2023/02/16 06:39:11;;;;;;;201.65;14.75;;;;;;;;;;5026858;28;20017;-59
2023/02/16 06:41:39;;;;;;;201.38;15.23;;;;;;;;;;5028149;28;20036;-59
2023/02/16 06:44:05;;;;;;;188.68;12.65;;;;;;;;;;5027423;28;20064;-59
2023/02/16 06:46:31;;;;;;;176.30;13.80;;;;;;;;;;5027573;28;20407;-59
2023/02/16 06:48:56;;;;;;;173.98;14.68;;;;;;;;;;5028150;28;20030;-58
2023/02/16 06:51:21;;;;;;;236.15;20.42;;;;;;;;;;5026979;28;20037;-59
2023/02/16 06:53:47;;;;;;;148.73;10.75;;;;;;;;;;5028006;28;20057;-61
2023/02/16 06:56:12;;;;;;;180.48;14.82;;;;;;;;;;5027470;28;20064;-58
2023/02/16 06:58:37;;;;;;;204.07;14.45;;;;;;;;;;5026274;28;20017;-58
2023/02/16 07:01:03;;;;;;;179.88;11.68;;;;;;;;;;5028275;28;20039;-58
2023/02/16 07:03:28;;;;;;;187.75;14.82;;;;;;;;;;5013906;28;20280;-59
2023/02/16 07:05:53;;;;;;;178.90;12.75;;;;;;;;;;5027101;28;20046;-59
2023/02/16 07:08:18;;;;;;;165.27;11.95;;;;;;;;;;5027701;28;20033;-59
2023/02/16 07:10:44;;;;;;;208.52;14.50;;;;;;;;;;5024776;28;20029;-59
2023/02/16 07:13:10;;;;;;;199.15;12.98;;;;;;;;;;5013549;28;20036;-58
2023/02/16 07:15:35;;;;;;;167.25;12.65;;;;;;;;;;5027367;28;20038;-59
2023/02/16 07:18:00;;;;;;;179.20;14.07;;;;;;;;;;5026741;28;20876;-59
2023/02/16 07:20:26;;;;;;;135.63;11.48;;;;;;;;;;5026569;28;20618;-59
2023/02/16 07:22:51;;;;;;;187.77;15.85;;;;;;;;;;5026179;28;20021;-60
2023/02/16 07:25:17;;;;;;;202.20;15.50;;;;;;;;;;5026928;28;20039;-59
2023/02/16 07:27:42;;;;;;;177.38;14.50;;;;;;;;;;5025655;28;20109;-61
2023/02/16 07:30:08;;;;;;;212.55;16.38;;;;;;;;;;5025132;28;20025;-59
2023/02/16 07:32:33;;;;;;;180.27;14.93;;;;;;;;;;5025684;28;20021;-59
2023/02/16 07:34:58;;;;;;;164.80;9.60;;;;;;;;;;5028021;28;20032;-60
2023/02/16 07:37:24;;;;;;;199.20;14.48;;;;;;;;;;5026503;28;20043;-60
2023/02/16 07:39:49;;;;;;;232.38;13.45;;;;;;;;;;5026995;28;20441;-59
2023/02/16 07:42:14;;;;;;;202.57;16.33;;;;;;;;;;5025779;28;20040;-60
2023/02/16 07:44:40;;;;;;;186.02;14.63;;;;;;;;;;5026454;28;20122;-60
2023/02/16 07:47:05;;;;;;;174.77;15.68;;;;;;;;;;5027841;28;20032;-60
2023/02/16 07:49:30;;;;;;;208.95;14.80;;;;;;;;;;5026199;28;20021;-60
2023/02/16 07:51:55;;;;;;;232.52;17.88;;;;;;;;;;5025209;28;20040;-60
2023/02/16 07:54:20;;;;;;;182.50;12.13;;;;;;;;;;5026330;28;20141;-59
2023/02/16 07:56:46;;;;;;;188.52;16.00;;;;;;;;;;5025128;28;20753;-59
2023/02/16 07:59:13;;;;;;;167.18;12.93;;;;;;;;;;5024509;28;20068;-60
2023/02/16 08:01:40;;;;;;;188.85;9.80;;;;;;;;;;5023435;28;20622;-60
2023/02/16 08:04:06;;;;;;;168.23;14.45;;;;;;;;;;5024798;28;20150;-60
2023/02/16 08:06:32;;;;;;;160.70;12.95;;;;;;;;;;5025398;28;20056;-60
2023/02/16 08:08:58;;;;;;;153.32;11.63;;;;;;;;;;5024912;28;20029;-60
2023/02/16 08:11:24;;;;;;;141.40;6.97;;;;;;;;;;5024082;28;20025;-60
2023/02/16 08:13:49;;;;;;;203.32;15.60;;;;;;;;;;5027468;28;20267;-61
2023/02/16 08:16:17;;;;;;;165.25;10.15;;;;;;;;;;5025003;28;20960;-60
2023/02/16 08:18:42;;;;;;;181.05;14.63;;;;;;;;;;5025439;28;20017;-60
2023/02/16 08:21:12;;;;;;;190.80;13.57;;;;;;;;;;5025273;28;20037;-60
2023/02/16 08:23:39;;;;;;;156.55;11.88;;;;;;;;;;5026082;28;20016;-61
2023/02/16 08:26:11;;;;;;;177.68;12.95;;;;;;;;;;5025363;28;20049;-60
2023/02/16 08:28:36;;;;;;;156.05;13.38;;;;;;;;;;5027014;28;20288;-59
2023/02/16 08:31:05;;;;;;;192.98;17.15;;;;;;;;;;5025603;28;20042;-59
2023/02/16 08:33:31;;;;;;;186.32;15.55;;;;;;;;;;5016739;28;20037;-59
2023/02/16 08:35:57;;;;;;;157.95;14.18;;;;;;;;;;5027006;28;20060;-59
2023/02/16 08:38:23;;;;;;;198.57;13.93;;;;;;;;;;5026636;28;20041;-59
2023/02/16 08:40:48;;;;;;;169.18;13.77;;;;;;;;;;5025494;28;20043;-59
2023/02/16 08:43:14;;;;;;;192.68;13.88;;;;;;;;;;5025168;28;20033;-60
2023/02/16 08:45:43;;;;;;;185.70;17.58;;;;;;;;;;5025632;28;20123;-59
2023/02/16 08:48:08;;;;;;;146.07;11.77;;;;;;;;;;5027467;28;20110;-59
2023/02/16 08:50:35;;;;;;;180.90;16.40;;;;;;;;;;5024218;28;20057;-59
2023/02/16 08:53:01;;;;;;;173.13;15.77;;;;;;;;;;5025622;28;20032;-59
2023/02/16 08:55:26;;;;;;;162.02;11.85;;;;;;;;;;5025044;28;20025;-59
2023/02/16 08:57:51;;;;;;;159.30;11.70;;;;;;;;;;5029976;28;20021;-59
2023/02/16 09:00:37;;;;;;;165.05;16.58;;;;;;;;;;5028351;28;20017;-59
2023/02/16 09:03:03;;;;;;;160.57;10.80;;;;;;;;;;5029860;28;20112;-59
2023/02/16 09:05:28;;;;;;;141.43;14.95;;;;;;;;;;5030794;28;20041;-60
2023/02/16 09:07:53;;;;;;;184.60;14.20;;;;;;;;;;5031945;28;20053;-59
2023/02/16 09:10:21;;;;;;;166.10;15.85;;;;;;;;;;5027402;28;20022;-60
2023/02/16 09:12:48;;;;;;;185.75;16.42;;;;;;;;;;5027625;28;20083;-59
2023/02/16 09:15:14;;;;;;;167.55;14.35;;;;;;;;;;5028947;28;20017;-60
2023/02/16 09:17:41;;;;;;;151.45;15.02;;;;;;;;;;5030882;28;20013;-59
2023/02/16 09:20:06;;;;;;;202.88;16.65;;;;;;;;;;5028913;28;20018;-59
2023/02/16 09:22:32;;;;;;;179.63;12.80;;;;;;;;;;5028522;28;20025;-59
2023/02/16 09:24:57;;;;;;;172.43;12.02;;;;;;;;;;5030242;28;20444;-59
2023/02/16 09:27:22;;;;;;;171.37;14.70;;;;;;;;;;5027041;28;20057;-59
2023/02/16 09:29:48;;;;;;;213.88;16.85;;;;;;;;;;5029078;28;20347;-59
2023/02/16 09:32:14;;;;;;;212.18;16.95;;;;;;;;;;5029671;28;20033;-59
2023/02/16 09:34:40;;;;;;;207.13;16.45;;;;;;;;;;5028383;28;20013;-60
2023/02/16 09:37:05;;;;;;;177.20;14.98;;;;;;;;;;5010732;28;20033;-60
2023/02/16 09:39:31;;;;;;;179.45;16.05;;;;;;;;;;5029443;28;20025;-60
2023/02/16 09:42:03;;;;;;;144.07;15.18;;;;;;;;;;5029667;28;20132;-59
2023/02/16 09:44:47;;;;;;;195.05;13.65;;;;;;;;;;5032212;28;20032;-59
2023/02/16 09:47:19;;;;;;;183.20;14.02;;;;;;;;;;5028448;28;20133;-60
2023/02/16 09:49:44;;;;;;;200.50;17.98;;;;;;;;;;5028124;28;20024;-59
2023/02/16 09:52:27;;;;;;;172.07;16.48;;;;;;;;;;5027036;28;20028;-60
2023/02/16 09:54:52;;;;;;;;;;;;;;;;;;5029800;28;20036;-59
2023/02/16 09:57:40;;;;;;;155.73;14.10;;;;;;;;;;5027303;28;19913;-60
2023/02/16 10:00:07;;;;;;;167.95;10.60;;;;;;;;;;4978403;28;20427;-60
2023/02/16 10:02:38;;;;;;;159.07;12.63;;;;;;;;;;5027287;28;20081;-59
2023/02/16 10:05:03;;;;;;;163.93;15.00;;;;;;;;;;5027976;28;20032;-59
2023/02/16 10:07:42;;;;;;;152.80;11.40;;;;;;;;;;5026886;28;20268;-60
2023/02/16 10:10:12;;;;;;;147.57;11.07;;;;;;;;;;5026773;28;20025;-60
2023/02/16 10:12:40;;;;;;;163.95;10.20;;;;;;;;;;5025612;28;20013;-59
2023/02/16 10:15:13;;;;;;;188.57;13.38;;;;;;;;;;5027790;28;20044;-59
2023/02/16 10:17:45;;;;;;;154.15;13.80;;;;;;;;;;5025693;28;20064;-59
2023/02/16 10:20:12;;;;;;;147.77;10.23;;;;;;;;;;5026106;28;20177;-60
2023/02/16 10:22:37;;;;;;;155.65;12.95;;;;;;;;;;5028336;28;20029;-59
2023/02/16 10:25:04;;;;;;;178.00;14.20;;;;;;;;;;5028332;28;20028;-60
2023/02/16 10:27:37;;;;;;;143.43;13.27;;;;;;;;;;5028185;28;20045;-60
2023/02/16 10:30:14;;;;;;;158.02;13.38;;;;;;;;;;5027216;28;20083;-60
2023/02/16 10:32:45;;;;;;;168.43;14.13;;;;;;;;;;5026878;28;20034;-60
2023/02/16 10:35:14;;;;;;;179.87;14.43;;;;;;;;;;5026593;28;20025;-59
2023/02/16 10:37:58;;;;;;;148.80;13.52;;;;;;;;;;5028064;28;20699;-60
2023/02/16 10:40:31;;;;;;;181.15;14.27;;;;;;;;;;5027359;28;21524;-59
2023/02/16 10:43:06;;;;;;;149.15;13.30;;;;;;;;;;5026761;28;20022;-60
2023/02/16 10:45:50;;;;;;;175.95;14.82;;;;;;;;;;5027029;28;20984;-60
2023/02/16 10:48:15;;;;;;;178.50;14.18;;;;;;;;;;5025889;28;20500;-60
2023/02/16 10:50:50;;;;;;;202.23;13.90;;;;;;;;;;5027504;28;20176;-60
2023/02/16 10:53:17;;;;;;;163.15;13.60;;;;;;;;;;5027499;28;20024;-60
2023/02/16 10:55:43;;;;;;;139.18;12.52;;;;;;;;;;5007485;28;20120;-60
2023/02/16 10:58:28;;;;;;;159.35;12.63;;;;;;;;;;5009108;28;20013;-60
2023/02/16 11:00:53;;;;;;;222.05;15.18;;;;;;;;;;5024079;28;20469;-61
2023/02/16 11:03:21;;;;;;;169.27;12.60;;;;;;;;;;5026440;28;20809;-60
2023/02/16 11:05:46;;;;;;;168.10;14.63;;;;;;;;;;5026298;28;20077;-60
2023/02/16 11:08:12;;;;;;;117.85;11.88;;;;;;;;;;5028476;28;20100;-60
2023/02/16 11:10:40;;;;;;;152.85;13.98;;;;;;;;;;5025269;28;20120;-60
2023/02/16 11:13:07;;;;;;;189.02;15.63;;;;;;;;;;5026057;28;20419;-61
2023/02/16 11:15:34;;;;;;;140.85;14.15;;;;;;;;;;5028074;28;20029;-61
2023/02/16 11:18:10;;;;;;;176.13;15.23;;;;;;;;;;5026553;28;20021;-60
2023/02/16 11:20:43;;;;;;;161.40;14.45;;;;;;;;;;5026477;28;20033;-59
2023/02/16 11:23:22;;;;;;;163.45;13.55;;;;;;;;;;5024617;28;20424;-60
2023/02/16 11:25:55;;;;;;;163.43;14.75;;;;;;;;;;5026441;28;20061;-60
2023/02/16 11:28:24;;;;;;;157.32;14.57;;;;;;;;;;5025616;28;20019;-60
2023/02/16 11:30:57;;;;;;;145.32;14.57;;;;;;;;;;5026151;28;20033;-60
2023/02/16 11:33:25;;;;;;;176.60;14.50;;;;;;;;;;5027132;28;20056;-60
2023/02/16 11:35:51;;;;;;;133.48;12.68;;;;;;;;;;5025499;28;20040;-60
2023/02/16 11:38:26;;;;;;;150.00;14.35;;;;;;;;;;5025929;28;20025;-60
2023/02/16 11:40:52;;;;;;;147.02;14.52;;;;;;;;;;5025389;28;20493;-60
2023/02/16 11:43:18;;;;;;;140.15;14.15;;;;;;;;;;5026418;28;20036;-60
2023/02/16 11:45:43;;;;;;;159.88;14.52;;;;;;;;;;5025456;28;20067;-61
2023/02/16 11:48:13;;;;;;;159.85;14.18;;;;;;;;;;5028135;28;20373;-61
2023/02/16 11:50:59;;;;;;;154.25;13.73;;;;;;;;;;5025125;28;20033;-61
2023/02/16 11:53:29;;;;;;;162.98;14.98;;;;;;;;;;5026634;28;20060;-60
2023/02/16 11:56:09;;;;;;;176.38;14.43;;;;;;;;;;5024988;28;20053;-61
2023/02/16 11:58:35;;;;;;;139.88;13.05;;;;;;;;;;5028408;28;20127;-61
2023/02/16 12:01:20;;;;;;;164.73;14.43;;;;;;;;;;5024681;28;20704;-61
2023/02/16 12:04:04;;;;;;;153.40;14.23;;;;;;;;;;5027520;28;20070;-60
2023/02/16 12:06:48;;;;;;;166.80;12.48;;;;;;;;;;5026881;28;20492;-60
2023/02/16 12:09:38;;;;;;;152.05;12.82;;;;;;;;;;5015380;28;20575;-60
2023/02/16 12:12:09;;;;;;;172.82;14.25;;;;;;;;;;5024575;28;20495;-60
2023/02/16 12:14:41;;;;;;;154.00;13.77;;;;;;;;;;5025036;28;20486;-60
2023/02/16 12:17:26;;;;;;;169.93;14.07;;;;;;;;;;5023932;28;20025;-61
2023/02/16 12:20:10;;;;;;;186.85;15.18;;;;;;;;;;5025228;28;20717;-60
2023/02/16 12:22:41;;;;;;;158.15;14.05;;;;;;;;;;5025318;28;20043;-60
2023/02/16 12:25:22;;;;;;;135.30;12.70;;;;;;;;;;5017856;28;20110;-60
2023/02/16 12:28:06;;;;;;;135.63;13.93;;;;;;;;;;5026175;28;20100;-59
2023/02/16 12:30:47;;;;;;;189.45;15.00;;;;;;;;;;5024077;28;20083;-59
2023/02/16 12:33:26;;;;;;;139.82;13.40;;;;;;;;;;5026649;28;20013;-60
2023/02/16 12:36:10;;;;;;;180.82;14.65;;;;;;;;;;5024055;28;20130;-60
2023/02/16 12:38:38;;;;;;;181.05;14.25;;;;;;;;;;5027587;28;20174;-60
2023/02/16 12:41:03;;;;;;;179.00;14.82;;;;;;;;;;5026025;28;20078;-60
2023/02/16 12:43:31;;;;;;;161.30;14.40;;;;;;;;;;5024924;28;20018;-60
2023/02/16 12:45:59;;;;;;;165.45;13.93;;;;;;;;;;5023603;28;20269;-59
2023/02/16 12:48:25;;;;;;;153.63;13.43;;;;;;;;;;5025719;28;20718;-60
2023/02/16 12:50:51;;;;;;;161.75;14.43;;;;;;;;;;5022800;28;20881;-60
2023/02/16 12:53:35;;;;;;;142.98;13.40;;;;;;;;;;5023518;28;20021;-60
2023/02/16 12:56:07;;;;;;;170.18;15.27;;;;;;;;;;5024618;28;20064;-60
2023/02/16 12:58:42;;;;;;;166.13;13.15;;;;;;;;;;5024128;28;20032;-60
2023/02/16 13:01:07;;;;;;;152.40;13.75;;;;;;;;;;5014352;28;20040;-59
2023/02/16 13:03:43;;;;;;;168.20;13.83;;;;;;;;;;5023909;28;20025;-60
2023/02/16 13:06:29;;;;;;;160.57;13.82;;;;;;;;;;5024369;28;20042;-60
2023/02/16 13:08:55;;;;;;;147.93;14.52;;;;;;;;;;5026405;28;20033;-60
2023/02/16 13:11:22;;;;;;;154.63;13.87;;;;;;;;;;5024458;28;20837;-60
2023/02/16 13:13:48;;;;;;;161.57;13.63;;;;;;;;;;5025747;28;20641;-60
2023/02/16 13:16:26;;;;;;;151.13;13.75;;;;;;;;;;5024336;28;20054;-60
2023/02/16 13:18:52;;;;;;;166.02;14.98;;;;;;;;;;5025604;28;20579;-60
2023/02/16 13:21:17;;;;;;;157.77;11.88;;;;;;;;;;5022480;28;20037;-60
2023/02/16 13:23:46;;;;;;;160.23;14.55;;;;;;;;;;5023325;28;20033;-59
2023/02/16 13:26:11;;;;;;;145.23;13.68;;;;;;;;;;5023733;28;20041;-59
2023/02/16 13:28:51;;;;;;;193.07;15.87;;;;;;;;;;5024299;28;20104;-60
2023/02/16 13:31:22;;;;;;;152.40;13.68;;;;;;;;;;5023241;28;21130;-60
2023/02/16 13:33:59;;;;;;;139.57;13.00;;;;;;;;;;5023434;28;20021;-60
2023/02/16 13:36:28;;;;;;;145.20;12.38;;;;;;;;;;5024455;28;20105;-60
2023/02/16 13:39:11;;;;;;;149.88;13.43;;;;;;;;;;5025748;28;20032;-61
2023/02/16 13:41:40;;;;;;;129.20;13.32;;;;;;;;;;5022294;28;20034;-59
2023/02/16 13:44:08;;;;;;;160.77;14.30;;;;;;;;;;5029004;28;20021;-60
2023/02/16 13:46:36;;;;;;;148.50;13.77;;;;;;;;;;5028564;28;20069;-60
2023/02/16 13:49:02;;;;;;;158.98;13.30;;;;;;;;;;5028460;28;20043;-60
2023/02/16 13:51:38;;;;;;;159.05;13.07;;;;;;;;;;5028250;28;20038;-59
2023/02/16 13:54:05;;;;;;;191.27;14.13;;;;;;;;;;5028778;28;20032;-60
2023/02/16 13:56:30;;;;;;;171.95;13.38;;;;;;;;;;5027474;28;20029;-60
2023/02/16 13:58:56;;;;;;;147.83;11.83;;;;;;;;;;5020082;28;20032;-60
2023/02/16 14:01:24;;;;;;;163.82;12.82;;;;;;;;;;5028376;28;20970;-60
2023/02/16 14:03:50;;;;;;;152.93;12.93;;;;;;;;;;5029463;28;20025;-60
2023/02/16 14:06:36;;;;;;;160.20;12.60;;;;;;;;;;5028440;28;20040;-59
2023/02/16 14:09:10;;;;;;;144.10;11.85;;;;;;;;;;5028017;28;20689;-59
2023/02/16 14:11:56;;;;;;;151.70;12.60;;;;;;;;;;5027321;28;20611;-60
2023/02/16 14:14:30;;;;;;;174.00;13.00;;;;;;;;;;5030378;28;20476;-60
2023/02/16 14:17:14;;;;;;;155.57;12.07;;;;;;;;;;5027923;28;20049;-60
2023/02/16 14:19:48;;;;;;;180.32;13.60;;;;;;;;;;5028801;28;20039;-60
2023/02/16 14:22:17;;;;;;;132.65;11.88;;;;;;;;;;5018946;28;20404;-60
2023/02/16 14:24:43;;;;;;;179.88;13.77;;;;;;;;;;5028844;28;20025;-59
2023/02/16 14:27:10;;;;;;;149.23;12.50;;;;;;;;;;5025960;28;20156;-60
2023/02/16 14:29:37;;;;;;;167.15;12.90;;;;;;;;;;5028180;28;20017;-59
2023/02/16 14:32:15;;;;;;;142.02;11.52;;;;;;;;;;5027671;28;20037;-60
2023/02/16 14:34:42;;;;;;;157.55;11.57;;;;;;;;;;5028201;28;20446;-59
2023/02/16 14:37:10;;;;;;;132.63;10.88;;;;;;;;;;5025207;28;20892;-59
2023/02/16 14:39:37;;;;;;;131.35;11.07;;;;;;;;;;5026621;28;20029;-60
2023/02/16 14:42:06;;;;;;;166.07;12.00;;;;;;;;;;5027546;28;20033;-58
2023/02/16 14:44:39;;;;;;;222.60;13.43;;;;;;;;;;5020598;28;20031;-59
2023/02/16 14:47:14;;;;;;;227.35;14.05;;;;;;;;;;5022333;28;20060;-59
2023/02/16 14:49:58;;;;;;;191.27;12.82;;;;;;;;;;5023847;28;20013;-59
2023/02/16 14:52:26;;;;;;;217.90;13.27;;;;;;;;;;5024286;28;20959;-58
2023/02/16 14:55:06;;;;;;;217.68;13.50;;;;;;;;;;5021731;28;20025;-59
2023/02/16 14:57:57;;;;;;;203.43;12.73;;;;;;;;;;5024384;28;20522;-58
2023/02/16 15:00:29;;;;;;;197.38;11.80;;;;;;;;;;5021705;28;20014;-59
2023/02/16 15:02:57;;;;;;;151.73;11.13;;;;;;;;;;5024918;28;20033;-60
2023/02/16 15:05:24;;;;;;;188.57;12.13;;;;;;;;;;5024951;28;20032;-58
2023/02/16 15:07:58;;;;;;;171.93;11.00;;;;;;;;;;5025680;28;20021;-58
2023/02/16 15:10:27;;;;;;;228.48;13.90;;;;;;;;;;5024705;28;20040;-59
2023/02/16 15:12:54;;;;;;;256.83;15.10;;;;;;;;;;5024525;28;20045;-59
2023/02/16 15:15:22;;;;;;;189.70;12.43;;;;;;;;;;5023035;28;20025;-59
2023/02/16 15:17:48;;;;;;;212.30;13.18;;;;;;;;;;5024493;28;20018;-59
2023/02/16 15:20:28;;;;;;;205.60;12.93;;;;;;;;;;5022173;28;20102;-60
2023/02/16 15:22:55;;;;;;;154.13;10.98;;;;;;;;;;5024409;28;20021;-60
2023/02/16 15:25:27;;;;;;;158.82;11.32;;;;;;;;;;5022276;28;20021;-59
2023/02/16 15:27:59;;;;;;;164.80;11.15;;;;;;;;;;5023436;28;20197;-59
2023/02/16 15:30:32;;;;;;;232.95;13.93;;;;;;;;;;5021815;28;20067;-60
2023/02/16 15:33:02;;;;;;;247.48;13.82;;;;;;;;;;5022809;28;20035;-63
2023/02/16 15:35:33;;;;;;;215.52;12.27;;;;;;;;;;5024524;28;21546;-58